Time;durP1;ratioP1;P1;durP2;ratioP2;P2;SDS_P1;SDS_P2;PMS_P1;PMS_P2;Temp;Humidity;BMP_temperature;BMP_pressure;BME280_temperature;BME280_humidity;BME280_pressure;Samples;Min_cycle;Max_cycle;Signal;HPM_P1;HPM_P2
2023/07/19 00:00:36;;;;;;;34.75;11.30;;;29.40;99.90;;;;;;5006473;22;20437;-49
2023/07/19 00:03:02;;;;;;;21.05;10.02;;;29.40;99.90;;;;;;5009422;28;20038;-50
2023/07/19 00:05:28;;;;;;;27.50;11.52;;;29.40;99.90;;;;;;5010780;28;20389;-50
2023/07/19 00:07:54;;;;;;;26.00;10.95;;;29.40;99.90;;;;;;4997627;28;20410;-49
2023/07/19 00:10:20;;;;;;;32.10;12.98;;;29.40;99.90;;;;;;5001610;28;20033;-49
2023/07/19 00:12:46;;;;;;;31.60;13.90;;;29.40;99.90;;;;;;5012415;28;20098;-49
2023/07/19 00:15:12;;;;;;;26.33;13.23;;;29.40;99.90;;;;;;5011898;28;20030;-50
2023/07/19 00:17:37;;;;;;;35.40;12.80;;;29.50;99.90;;;;;;5012075;28;20040;-50
2023/07/19 00:20:04;;;;;;;23.17;12.50;;;29.40;99.90;;;;;;5007527;28;20021;-50
2023/07/19 00:22:31;;;;;;;35.13;14.43;;;29.40;99.90;;;;;;5010240;28;20334;-50
2023/07/19 00:24:57;;;;;;;23.83;12.98;;;29.50;99.90;;;;;;4997481;28;20030;-50
2023/07/19 00:27:24;;;;;;;28.83;12.52;;;29.40;99.90;;;;;;4995006;28;20069;-51
2023/07/19 00:29:50;;;;;;;26.52;12.88;;;29.40;99.90;;;;;;4994256;28;20029;-50
2023/07/19 00:32:17;;;;;;;25.23;13.27;;;29.40;99.90;;;;;;5012358;28;20029;-50
2023/07/19 00:34:43;;;;;;;23.45;12.10;;;29.40;99.90;;;;;;5011773;28;20026;-50
2023/07/19 00:37:08;;;;;;;30.92;12.38;;;29.40;99.90;;;;;;5007217;28;20080;-51
2023/07/19 00:39:34;;;;;;;27.00;12.77;;;29.40;99.90;;;;;;4994517;28;20046;-50
2023/07/19 00:42:01;;;;;;;34.33;13.10;;;29.40;99.90;;;;;;5009018;28;20026;-51
2023/07/19 00:44:27;;;;;;;24.55;13.05;;;29.40;99.90;;;;;;5009426;28;20014;-50
2023/07/19 00:46:53;;;;;;;29.67;12.65;;;29.40;99.90;;;;;;5011693;28;20141;-50
2023/07/19 00:49:19;;;;;;;27.13;12.32;;;29.40;99.90;;;;;;5007194;28;20452;-50
2023/07/19 00:51:45;;;;;;;29.08;12.50;;;29.40;99.90;;;;;;5009699;28;20141;-50
2023/07/19 00:54:11;;;;;;;29.25;13.05;;;29.40;99.90;;;;;;5005295;28;20105;-50
2023/07/19 00:56:38;;;;;;;28.02;12.65;;;29.30;99.90;;;;;;5018562;28;20030;-50
2023/07/19 00:59:04;;;;;;;39.67;13.18;;;29.40;99.90;;;;;;4996775;28;20022;-50
2023/07/19 01:01:31;;;;;;;30.58;12.20;;;29.40;99.90;;;;;;5016290;23;20054;-55
2023/07/19 01:03:57;;;;;;;25.35;12.05;;;29.30;99.90;;;;;;5011746;28;20026;-55
2023/07/19 01:06:22;;;;;;;24.50;11.85;;;29.30;99.90;;;;;;5009916;28;20474;-54
2023/07/19 01:08:49;;;;;;;29.83;14.13;;;29.30;99.90;;;;;;5010795;28;20029;-54
2023/07/19 01:11:15;;;;;;;28.80;12.68;;;29.30;99.90;;;;;;5006271;28;20019;-54
2023/07/19 01:13:51;;;;;;;24.92;12.75;;;29.30;99.90;;;;;;5008178;28;20040;-54
2023/07/19 01:16:17;;;;;;;26.97;12.50;;;29.30;99.90;;;;;;5004912;28;20037;-56
2023/07/19 01:18:43;;;;;;;28.20;11.77;;;29.30;99.90;;;;;;5007899;28;20021;-55
2023/07/19 01:21:09;;;;;;;35.63;12.35;;;29.30;99.90;;;;;;5005300;28;20025;-54
2023/07/19 01:23:35;;;;;;;26.88;11.40;;;29.30;99.90;;;;;;5006062;28;20421;-55
2023/07/19 01:26:01;;;;;;;25.08;10.93;;;29.40;99.90;;;;;;5005377;28;20018;-54
2023/07/19 01:28:26;;;;;;;28.45;12.02;;;29.40;99.90;;;;;;5003209;28;20387;-54
2023/07/19 01:30:52;;;;;;;23.50;10.43;;;29.40;99.90;;;;;;5004880;28;20022;-54
2023/07/19 01:33:18;;;;;;;27.77;12.40;;;29.40;99.90;;;;;;4999550;28;20041;-55
2023/07/19 01:35:45;;;;;;;20.35;11.20;;;29.40;99.90;;;;;;5005599;28;20034;-55
2023/07/19 01:38:11;;;;;;;22.55;11.45;;;29.40;99.90;;;;;;4989676;28;20120;-54
2023/07/19 01:40:36;;;;;;;21.33;11.27;;;29.40;99.90;;;;;;4992798;28;20031;-54
2023/07/19 01:43:02;;;;;;;22.90;10.98;;;29.40;99.90;;;;;;5009305;28;20018;-54
2023/07/19 01:45:28;;;;;;;26.98;11.50;;;29.50;99.90;;;;;;5009840;28;20092;-54
2023/07/19 01:47:54;;;;;;;31.92;12.75;;;29.40;99.90;;;;;;5007643;28;20450;-54
2023/07/19 01:50:20;;;;;;;29.15;12.15;;;29.40;99.90;;;;;;5007986;28;20022;-55
2023/07/19 01:52:45;;;;;;;28.95;12.73;;;29.40;99.90;;;;;;5004070;28;20425;-55
2023/07/19 01:55:11;;;;;;;36.95;13.25;;;29.40;99.90;;;;;;5002767;28;20049;-55
2023/07/19 01:57:37;;;;;;;27.40;12.90;;;29.40;99.90;;;;;;5001200;28;20426;-55
2023/07/19 02:02:34;;;;;;;29.65;12.63;;;29.40;99.90;;;;;;5010503;28;20054;-50
2023/07/19 02:04:59;;;;;;;29.67;13.48;;;29.30;99.90;;;;;;5012143;28;20034;-50
2023/07/19 02:07:25;;;;;;;23.45;13.27;;;29.30;99.90;;;;;;5012161;28;20022;-51
2023/07/19 02:09:51;;;;;;;27.67;11.60;;;29.20;99.90;;;;;;5011845;28;20454;-50
2023/07/19 02:12:17;;;;;;;28.92;13.00;;;29.20;99.90;;;;;;5012133;28;20351;-50
2023/07/19 02:14:42;;;;;;;30.95;13.23;;;29.20;99.90;;;;;;5011876;28;20056;-50
2023/07/19 02:17:09;;;;;;;30.40;12.90;;;29.20;99.90;;;;;;5012067;28;20430;-50
2023/07/19 02:19:35;;;;;;;31.25;12.40;;;29.20;99.90;;;;;;5011805;28;20018;-50
2023/07/19 02:22:01;;;;;;;31.58;13.02;;;29.20;99.90;;;;;;5011879;28;20076;-50
2023/07/19 02:24:27;;;;;;;25.52;12.27;;;29.20;99.90;;;;;;5011768;28;20022;-51
2023/07/19 02:26:52;;;;;;;23.60;11.68;;;29.20;99.90;;;;;;5011737;28;20029;-50
2023/07/19 02:29:18;;;;;;;31.30;12.40;;;29.20;99.90;;;;;;5011648;28;20399;-50
2023/07/19 02:31:44;;;;;;;28.88;12.02;;;29.20;99.90;;;;;;5011832;28;20021;-50
2023/07/19 02:34:10;;;;;;;28.80;12.40;;;29.20;99.90;;;;;;5011607;28;20026;-50
2023/07/19 02:36:36;;;;;;;29.52;12.43;;;29.20;99.90;;;;;;5011705;28;20034;-50
2023/07/19 02:39:03;;;;;;;30.50;11.15;;;29.10;99.90;;;;;;4998241;28;20030;-51
2023/07/19 02:41:30;;;;;;;26.42;10.70;;;29.20;99.90;;;;;;5011954;28;20475;-51
2023/07/19 02:43:56;;;;;;;24.83;11.02;;;29.10;99.90;;;;;;5011739;28;20069;-50
2023/07/19 02:46:22;;;;;;;26.17;12.05;;;29.10;99.90;;;;;;5011271;28;20026;-50
2023/07/19 02:48:47;;;;;;;25.27;12.65;;;29.10;99.90;;;;;;5011435;28;20033;-51
2023/07/19 02:51:13;;;;;;;28.80;13.63;;;29.00;99.90;;;;;;5011187;28;20018;-51
2023/07/19 02:53:39;;;;;;;25.20;13.13;;;29.00;99.90;;;;;;5010043;28;20034;-50
2023/07/19 02:56:05;;;;;;;27.45;13.60;;;29.00;99.90;;;;;;5011266;28;20038;-50
2023/07/19 02:58:31;;;;;;;35.40;13.05;;;29.00;99.90;;;;;;5011589;28;20076;-50
2023/07/19 03:00:57;;;;;;;27.75;13.43;;;28.90;99.90;;;;;;5023510;22;20059;-56
2023/07/19 03:03:22;;;;;;;31.40;12.98;;;28.90;99.90;;;;;;5010117;28;20026;-55
2023/07/19 03:05:49;;;;;;;28.63;13.38;;;28.80;99.90;;;;;;5010545;28;20026;-56
2023/07/19 03:08:14;;;;;;;30.52;14.30;;;28.80;99.90;;;;;;5007428;28;20028;-56
2023/07/19 03:10:40;;;;;;;27.23;13.88;;;28.70;99.90;;;;;;5008507;28;20014;-56
2023/07/19 03:13:07;;;;;;;30.80;13.98;;;28.70;99.90;;;;;;5007367;28;20105;-56
2023/07/19 03:15:34;;;;;;;35.92;13.80;;;28.70;99.90;;;;;;5007987;28;20593;-56
2023/07/19 03:18:00;;;;;;;42.20;15.32;;;28.60;99.90;;;;;;5002193;28;20493;-56
2023/07/19 03:20:27;;;;;;;30.00;13.85;;;28.60;99.90;;;;;;5009915;28;20474;-55
2023/07/19 03:22:55;;;;;;;28.95;12.40;;;28.60;99.90;;;;;;5002368;28;20386;-56
2023/07/19 03:25:20;;;;;;;28.45;13.85;;;28.60;99.90;;;;;;5003243;28;20049;-56
2023/07/19 03:27:46;;;;;;;37.22;14.27;;;28.60;99.90;;;;;;5002519;28;20470;-55
2023/07/19 03:30:13;;;;;;;30.45;14.07;;;28.60;99.90;;;;;;5002832;28;20030;-58
2023/07/19 03:32:39;;;;;;;30.92;13.90;;;28.60;99.90;;;;;;4999731;28;20414;-60
2023/07/19 03:35:06;;;;;;;34.03;15.07;;;28.60;99.90;;;;;;4996288;28;20027;-59
2023/07/19 03:37:31;;;;;;;31.37;14.13;;;28.60;99.90;;;;;;5009791;28;20065;-58
2023/07/19 03:39:57;;;;;;;28.05;13.05;;;28.60;99.90;;;;;;5025845;28;20053;-57
2023/07/19 03:42:23;;;;;;;26.60;12.85;;;28.60;99.90;;;;;;5007590;28;20033;-57
2023/07/19 03:44:48;;;;;;;37.97;13.50;;;28.60;99.90;;;;;;5009990;28;20022;-58
2023/07/19 03:47:14;;;;;;;26.55;12.85;;;28.60;99.90;;;;;;5007741;28;20018;-57
2023/07/19 03:49:40;;;;;;;26.90;13.07;;;28.60;99.90;;;;;;5006516;28;20044;-57
2023/07/19 03:52:06;;;;;;;30.80;11.88;;;28.60;99.90;;;;;;5006109;28;20080;-55
2023/07/19 03:54:32;;;;;;;24.27;11.18;;;28.60;99.90;;;;;;5007023;28;20113;-58
2023/07/19 03:56:58;;;;;;;22.58;11.70;;;28.60;99.90;;;;;;5005866;28;20126;-56
2023/07/19 03:59:23;;;;;;;26.80;12.40;;;28.60;99.90;;;;;;4992352;28;20033;-56
2023/07/19 04:01:49;;;;;;;26.48;11.57;;;28.60;99.90;;;;;;4998203;28;20104;-56
2023/07/19 04:04:15;;;;;;;26.80;11.48;;;28.70;99.90;;;;;;5009451;28;20513;-57
2023/07/19 04:06:41;;;;;;;29.50;10.02;;;28.70;99.90;;;;;;5012453;28;20112;-57
2023/07/19 04:09:07;;;;;;;29.73;11.52;;;28.70;99.90;;;;;;5012433;28;20026;-56
2023/07/19 04:11:33;;;;;;;27.55;11.65;;;28.80;99.90;;;;;;5007958;28;20080;-56
2023/07/19 04:13:59;;;;;;;37.00;10.60;;;28.80;99.90;;;;;;5013223;28;20025;-56
2023/07/19 04:16:25;;;;;;;25.52;10.13;;;28.80;99.90;;;;;;5006756;28;20046;-56
2023/07/19 04:18:51;;;;;;;19.92;9.82;;;28.80;99.90;;;;;;5009382;28;20409;-56
2023/07/19 04:21:17;;;;;;;20.30;11.02;;;28.90;99.90;;;;;;5007221;28;20036;-56
2023/07/19 04:23:43;;;;;;;22.30;9.60;;;28.80;99.90;;;;;;4991345;28;20025;-57
2023/07/19 04:26:10;;;;;;;22.88;10.02;;;28.90;99.90;;;;;;5003857;28;20367;-56
2023/07/19 04:28:35;;;;;;;24.10;10.23;;;28.90;99.90;;;;;;5019214;28;20370;-57
2023/07/19 04:31:01;;;;;;;21.60;8.80;;;28.90;99.90;;;;;;5011307;28;20167;-56
2023/07/19 04:33:27;;;;;;;22.92;8.48;;;28.90;99.90;;;;;;5001118;28;20030;-56
2023/07/19 04:35:53;;;;;;;37.35;10.27;;;28.90;99.90;;;;;;5003734;28;20533;-56
2023/07/19 04:38:19;;;;;;;20.85;9.20;;;28.90;99.90;;;;;;5013919;28;20462;-57
2023/07/19 04:40:44;;;;;;;23.45;8.35;;;28.90;99.90;;;;;;5011699;28;20037;-57
2023/07/19 04:43:10;;;;;;;24.95;8.30;;;28.90;99.90;;;;;;5010618;28;20105;-56
2023/07/19 04:45:36;;;;;;;22.83;8.80;;;29.00;99.90;;;;;;5011287;28;20021;-58
2023/07/19 04:48:03;;;;;;;20.80;8.70;;;28.90;99.90;;;;;;5010339;28;20474;-57
2023/07/19 04:50:29;;;;;;;26.25;8.77;;;29.00;99.90;;;;;;5008799;28;20053;-58
2023/07/19 04:52:55;;;;;;;27.90;9.10;;;29.00;99.90;;;;;;5009889;28;20065;-57
2023/07/19 04:55:21;;;;;;;27.52;9.93;;;28.90;99.90;;;;;;5009322;28;20018;-56
2023/07/19 04:57:47;;;;;;;28.50;9.52;;;28.90;99.90;;;;;;5007096;28;20036;-56
2023/07/19 05:00:14;;;;;;;27.17;9.15;;;29.00;99.90;;;;;;4994235;28;20022;-56
2023/07/19 05:02:41;;;;;;;23.42;9.25;;;28.90;99.90;;;;;;5006142;28;20053;-56
2023/07/19 05:05:08;;;;;;;33.72;9.98;;;29.00;99.90;;;;;;5027219;28;20030;-56
2023/07/19 05:07:37;;;;;;;23.95;9.02;;;28.90;99.90;;;;;;5012399;28;20050;-58
2023/07/19 05:10:04;;;;;;;27.08;9.50;;;29.00;99.90;;;;;;5009267;28;20033;-57
2023/07/19 05:12:31;;;;;;;34.30;8.65;;;29.00;99.90;;;;;;5009519;28;20014;-58
2023/07/19 05:14:57;;;;;;;25.90;8.60;;;29.00;99.90;;;;;;5008804;28;20038;-57
2023/07/19 05:17:23;;;;;;;31.02;8.35;;;29.00;99.90;;;;;;5008643;28;20076;-57
2023/07/19 05:19:49;;;;;;;34.63;8.82;;;29.00;99.90;;;;;;5002591;28;20050;-57
2023/07/19 05:22:16;;;;;;;25.67;8.02;;;29.00;99.90;;;;;;5012404;28;20424;-56
2023/07/19 05:24:42;;;;;;;36.95;10.00;;;29.00;99.90;;;;;;5008384;28;20447;-56
2023/07/19 05:27:08;;;;;;;36.85;11.93;;;29.00;99.90;;;;;;5005080;28;20488;-57
2023/07/19 05:29:34;;;;;;;30.38;11.52;;;29.00;99.90;;;;;;5007763;28;20031;-58
2023/07/19 05:32:00;;;;;;;33.05;11.40;;;29.10;99.90;;;;;;5002365;28;20033;-58
2023/07/19 05:34:25;;;;;;;30.20;9.93;;;29.10;99.90;;;;;;4999655;28;20386;-57
2023/07/19 05:36:51;;;;;;;25.83;9.65;;;29.10;99.90;;;;;;5006803;28;20030;-55
2023/07/19 05:39:17;;;;;;;38.17;9.25;;;29.10;99.90;;;;;;5011936;28;20372;-55
2023/07/19 05:41:43;;;;;;;35.03;9.60;;;29.10;99.90;;;;;;5011253;28;20066;-55
2023/07/19 05:44:09;;;;;;;28.00;9.63;;;29.10;99.90;;;;;;5008966;28;20466;-55
2023/07/19 05:46:36;;;;;;;35.03;9.32;;;29.20;99.90;;;;;;5010405;28;20125;-55
2023/07/19 05:49:02;;;;;;;28.52;10.13;;;29.10;99.90;;;;;;5008102;28;20045;-55
2023/07/19 05:51:28;;;;;;;35.58;11.38;;;29.10;99.90;;;;;;5007531;28;20615;-57
2023/07/19 05:53:54;;;;;;;29.08;10.43;;;29.20;99.90;;;;;;5009054;28;20041;-57
2023/07/19 05:56:21;;;;;;;31.55;10.95;;;29.20;99.90;;;;;;5004705;28;20096;-55
2023/07/19 05:58:47;;;;;;;25.38;12.23;;;29.20;99.90;;;;;;4997847;28;20049;-56
2023/07/19 06:01:17;;;;;;;26.25;11.48;;;29.20;99.90;;;;;;4994164;28;20086;-56
2023/07/19 06:03:46;;;;;;;33.55;12.50;;;29.20;99.90;;;;;;5011085;28;20060;-57
2023/07/19 06:06:12;;;;;;;33.45;12.90;;;29.20;99.90;;;;;;5009864;28;20474;-57
2023/07/19 06:08:38;;;;;;;30.25;12.20;;;29.20;99.90;;;;;;5010396;28;20045;-57
2023/07/19 06:11:04;;;;;;;30.50;10.35;;;29.20;99.90;;;;;;5007174;28;20052;-57
2023/07/19 06:13:30;;;;;;;28.08;10.25;;;29.10;99.90;;;;;;5009557;28;20033;-56
2023/07/19 06:15:56;;;;;;;36.72;11.90;;;29.10;99.90;;;;;;5007582;28;20038;-57
2023/07/19 06:18:23;;;;;;;35.78;12.32;;;29.10;99.90;;;;;;5019487;28;20026;-57
2023/07/19 06:20:49;;;;;;;31.88;12.77;;;29.10;99.90;;;;;;5011163;28;20030;-58
2023/07/19 06:23:15;;;;;;;34.30;13.20;;;29.20;99.90;;;;;;5006423;28;20080;-55
2023/07/19 06:25:41;;;;;;;31.40;13.85;;;29.10;99.90;;;;;;5005395;28;20093;-56
2023/07/19 06:28:07;;;;;;;30.42;14.13;;;29.10;99.90;;;;;;4998009;28;20034;-54
2023/07/19 06:30:33;;;;;;;25.92;11.93;;;29.00;99.90;;;;;;5009785;28;20018;-56
2023/07/19 06:32:59;;;;;;;29.48;12.85;;;29.00;99.90;;;;;;4998081;28;20167;-58
2023/07/19 06:35:25;;;;;;;23.55;10.30;;;29.00;99.90;;;;;;5000051;28;20030;-58
2023/07/19 06:37:51;;;;;;;24.15;10.43;;;29.00;99.90;;;;;;5000885;28;20025;-57
2023/07/19 06:40:17;;;;;;;13.43;8.73;;;29.10;99.90;;;;;;4990821;28;20037;-59
2023/07/19 06:42:43;;;;;;;15.77;9.38;;;29.20;99.90;;;;;;5007635;28;20100;-57
2023/07/19 06:45:10;;;;;;;21.23;9.20;;;29.20;99.90;;;;;;5009792;28;20030;-57
2023/07/19 06:47:35;;;;;;;17.85;8.63;;;29.30;99.90;;;;;;5008541;28;20028;-57
2023/07/19 06:50:02;;;;;;;21.98;9.68;;;29.30;99.90;;;;;;5008930;28;20026;-56
2023/07/19 06:52:28;;;;;;;12.98;8.88;;;29.30;99.90;;;;;;5004220;28;20027;-57
2023/07/19 06:54:54;;;;;;;20.05;9.85;;;29.40;99.90;;;;;;5009921;28;20056;-56
2023/07/19 06:57:21;;;;;;;23.95;9.00;;;29.40;99.90;;;;;;5004408;28;20058;-56
2023/07/19 06:59:49;;;;;;;20.77;9.27;;;29.40;99.90;;;;;;4992779;28;20019;-56
2023/07/19 07:02:18;;;;;;;21.17;9.80;;;29.50;99.90;;;;;;5001747;28;20490;-56
2023/07/19 07:04:47;;;;;;;17.23;8.65;;;29.50;99.90;;;;;;5007634;28;20455;-56
2023/07/19 07:07:15;;;;;;;15.45;8.77;;;29.50;99.90;;;;;;5010107;28;20585;-55
2023/07/19 07:09:42;;;;;;;20.48;8.90;;;29.50;99.90;;;;;;5006334;28;20026;-56
2023/07/19 07:12:09;;;;;;;16.65;8.82;;;29.50;99.90;;;;;;5007975;28;20488;-58
2023/07/19 07:14:36;;;;;;;16.90;8.57;;;29.60;99.90;;;;;;5005614;28;20117;-58
2023/07/19 07:17:02;;;;;;;15.45;8.10;;;29.60;99.90;;;;;;5007061;28;20508;-58
2023/07/19 07:19:28;;;;;;;21.07;8.60;;;29.60;99.90;;;;;;5002223;28;20014;-58
2023/07/19 07:21:54;;;;;;;20.83;9.25;;;29.60;99.90;;;;;;5003014;28;20022;-57
2023/07/19 07:24:20;;;;;;;21.85;9.82;;;29.60;99.90;;;;;;5007498;28;20041;-56
2023/07/19 07:26:46;;;;;;;16.25;8.20;;;29.60;99.90;;;;;;5000476;28;20026;-58
2023/07/19 07:29:11;;;;;;;18.92;8.23;;;29.60;99.90;;;;;;5000693;28;20114;-58
2023/07/19 07:31:37;;;;;;;13.95;7.70;;;29.60;99.90;;;;;;5004874;28;20080;-57
2023/07/19 07:34:03;;;;;;;13.63;7.97;;;29.70;99.90;;;;;;5000568;28;20026;-57
2023/07/19 07:36:29;;;;;;;11.25;7.53;;;29.70;99.90;;;;;;4993842;28;20034;-58
2023/07/19 07:38:54;;;;;;;12.80;7.93;;;29.70;99.90;;;;;;5008706;28;20022;-58
2023/07/19 07:41:20;;;;;;;15.48;7.93;;;29.70;99.90;;;;;;5013020;28;20131;-58
2023/07/19 07:43:46;;;;;;;13.05;8.07;;;29.70;99.90;;;;;;5012986;28;20030;-58
2023/07/19 07:46:12;;;;;;;13.68;7.90;;;29.70;99.90;;;;;;5011886;28;20033;-58
2023/07/19 07:48:37;;;;;;;13.07;8.38;;;29.70;99.90;;;;;;5012837;28;20054;-58
2023/07/19 07:51:03;;;;;;;13.02;7.15;;;29.70;99.90;;;;;;5008228;28;20033;-58
2023/07/19 07:53:29;;;;;;;14.73;8.65;;;29.70;99.90;;;;;;5010499;28;20462;-58
2023/07/19 07:55:55;;;;;;;12.68;7.88;;;29.70;99.90;;;;;;5009364;28;20034;-57
2023/07/19 07:58:21;;;;;;;14.50;8.00;;;29.70;99.90;;;;;;5004810;28;20018;-58
2023/07/19 08:00:47;;;;;;;14.73;7.95;;;29.70;99.90;;;;;;4994965;28;20022;-59
2023/07/19 08:03:14;;;;;;;13.00;7.78;;;29.70;99.90;;;;;;5026767;28;20036;-57
2023/07/19 08:05:40;;;;;;;13.23;7.78;;;29.70;99.90;;;;;;5012528;28;20108;-58
2023/07/19 08:08:06;;;;;;;10.30;6.35;;;29.70;99.90;;;;;;5011069;28;20034;-56
2023/07/19 08:10:39;;;;;;;11.13;7.25;;;29.70;99.90;;;;;;5011671;28;20022;-57
2023/07/19 08:13:08;;;;;;;12.50;7.45;;;29.70;99.90;;;;;;5006731;28;20030;-57
2023/07/19 08:15:35;;;;;;;11.95;7.25;;;29.70;99.90;;;;;;5012007;28;20029;-57
2023/07/19 08:18:01;;;;;;;10.10;6.85;;;29.70;99.90;;;;;;5004119;28;20029;-57
2023/07/19 08:20:27;;;;;;;14.77;7.30;;;29.70;99.90;;;;;;5008611;28;20026;-57
2023/07/19 08:22:53;;;;;;;10.00;6.30;;;29.70;99.90;;;;;;5002551;28;20022;-58
2023/07/19 08:25:19;;;;;;;8.00;6.28;;;29.70;99.90;;;;;;5004516;28;20117;-58
2023/07/19 08:27:45;;;;;;;11.57;7.15;;;29.70;99.90;;;;;;5004909;28;20030;-58
2023/07/19 08:30:18;;;;;;;14.88;7.43;;;29.70;99.90;;;;;;5005613;28;20473;-58
2023/07/19 08:32:48;;;;;;;9.38;6.40;;;29.70;99.90;;;;;;4999168;28;20030;-58
2023/07/19 08:35:14;;;;;;;8.98;6.75;;;29.70;99.90;;;;;;5008669;28;20025;-58
2023/07/19 08:37:43;;;;;;;9.68;6.68;;;29.70;99.90;;;;;;5002992;28;20083;-57
2023/07/19 08:40:13;;;;;;;8.40;6.22;;;29.70;99.90;;;;;;5013038;28;20029;-57
2023/07/19 08:42:40;;;;;;;9.75;6.35;;;29.70;99.90;;;;;;5009684;28;20075;-57
2023/07/19 08:45:07;;;;;;;12.50;7.07;;;29.70;99.90;;;;;;5012502;28;20540;-57
2023/07/19 08:47:37;;;;;;;9.80;7.28;;;29.70;99.90;;;;;;5008448;28;20485;-59
2023/07/19 08:50:04;;;;;;;11.52;6.22;;;29.70;99.90;;;;;;5008875;28;20072;-58
2023/07/19 08:52:34;;;;;;;12.48;6.95;;;29.70;99.90;;;;;;5007245;28;20022;-57
2023/07/19 08:55:00;;;;;;;7.97;6.10;;;29.70;99.90;;;;;;5009195;28;20041;-58
2023/07/19 08:57:27;;;;;;;9.90;6.90;;;29.70;99.90;;;;;;5003905;28;20109;-58
2023/07/19 08:59:53;;;;;;;11.38;7.10;;;29.70;99.90;;;;;;4994869;28;20042;-58
2023/07/19 09:02:19;;;;;;;11.30;7.57;;;29.70;99.90;;;;;;5004585;28;20042;-58
2023/07/19 09:05:05;;;;;;;7.80;6.70;;;29.70;99.90;;;;;;5011171;28;20113;-57
2023/07/19 09:07:33;;;;;;;11.53;6.63;;;29.70;99.90;;;;;;5012180;28;20024;-58
2023/07/19 09:09:58;;;;;;;;;;;29.70;99.90;;;;;;5008682;28;20259;-56
2023/07/19 09:12:25;;;;;;;8.10;6.13;;;29.70;99.90;;;;;;5012873;28;20384;-57
2023/07/19 09:14:51;;;;;;;9.40;7.22;;;29.70;99.90;;;;;;5006115;28;20007;-57
2023/07/19 09:17:19;;;;;;;7.35;6.03;;;29.70;99.90;;;;;;5008395;28;20096;-57
2023/07/19 09:19:46;;;;;;;9.10;6.53;;;29.70;99.90;;;;;;5006726;28;20045;-57
2023/07/19 09:22:15;;;;;;;10.57;6.55;;;29.70;99.90;;;;;;5007800;28;20028;-57
2023/07/19 09:24:54;;;;;;;10.63;6.60;;;29.70;99.90;;;;;;5000806;28;20022;-58
2023/07/19 09:27:26;;;;;;;9.68;6.28;;;29.70;99.90;;;;;;5005889;28;20062;-56
2023/07/19 09:29:52;;;;;;;9.63;6.47;;;29.70;99.90;;;;;;4999510;28;20466;-57
2023/07/19 09:32:19;;;;;;;11.63;5.82;;;29.70;99.90;;;;;;5002789;28;20061;-56
2023/07/19 09:34:45;;;;;;;9.52;6.55;;;29.70;99.90;;;;;;5003908;28;20419;-57
2023/07/19 09:37:11;;;;;;;9.70;6.32;;;29.70;99.90;;;;;;5012872;28;20105;-57
2023/07/19 09:39:37;;;;;;;7.25;5.93;;;29.80;99.90;;;;;;5011198;28;20118;-57
2023/07/19 09:42:04;;;;;;;7.93;6.10;;;29.70;99.90;;;;;;5011665;28;20037;-57
2023/07/19 09:44:30;;;;;;;9.80;6.13;;;29.70;99.90;;;;;;5009665;28;20023;-57
2023/07/19 09:46:57;;;;;;;10.80;6.90;;;29.80;99.90;;;;;;5010607;28;20025;-57
2023/07/19 09:49:23;;;;;;;8.70;6.40;;;29.80;99.90;;;;;;5006265;28;20375;-56
2023/07/19 09:51:51;;;;;;;8.70;6.68;;;29.80;99.90;;;;;;5008257;28;20022;-57
2023/07/19 09:54:17;;;;;;;9.60;5.47;;;29.80;99.90;;;;;;5002745;28;20133;-58
2023/07/19 09:56:44;;;;;;;10.70;6.72;;;29.80;99.90;;;;;;5006711;28;20108;-57
2023/07/19 09:59:35;;;;;;;9.77;6.63;;;29.80;99.90;;;;;;4993931;28;20081;-57
2023/07/19 10:02:03;;;;;;;11.70;7.47;;;29.70;99.90;;;;;;5000608;28;20080;-56
2023/07/19 10:04:34;;;;;;;10.40;7.38;;;29.80;99.90;;;;;;5009990;28;20482;-58
2023/07/19 10:07:26;;;;;;;11.43;6.47;;;29.80;99.90;;;;;;5010148;28;20032;-57
2023/07/19 10:10:14;;;;;;;10.40;7.47;;;29.80;99.90;;;;;;5007800;28;20083;-56
2023/07/19 10:12:47;;;;;;;10.63;7.43;;;29.80;99.90;;;;;;5009074;28;20181;-57
2023/07/19 10:15:16;;;;;;;10.20;7.15;;;29.80;99.90;;;;;;5006897;28;20026;-57
2023/07/19 10:18:09;;;;;;;11.75;8.00;;;29.80;99.90;;;;;;5009513;28;20042;-57
2023/07/19 10:20:36;;;;;;;12.98;7.68;;;29.80;99.90;;;;;;4999801;28;20478;-56
2023/07/19 10:23:04;;;;;;;10.63;8.43;;;29.80;99.90;;;;;;5000203;28;20027;-56
2023/07/19 10:25:49;;;;;;;11.27;7.38;;;29.90;99.90;;;;;;5019470;28;20037;-55
2023/07/19 10:28:26;;;;;;;11.18;8.07;;;29.80;99.90;;;;;;5004971;28;20108;-56
2023/07/19 10:30:56;;;;;;;9.60;7.53;;;29.80;99.90;;;;;;5001323;28;20021;-56
2023/07/19 10:33:22;;;;;;;9.85;8.00;;;29.80;99.90;;;;;;4996894;28;20403;-54
2023/07/19 10:35:50;;;;;;;12.90;7.57;;;29.90;99.90;;;;;;5009795;28;20030;-57
2023/07/19 10:38:21;;;;;;;10.35;7.13;;;29.90;99.90;;;;;;5019694;28;20397;-56
2023/07/19 10:41:02;;;;;;;8.63;7.38;;;29.90;99.90;;;;;;5009190;28;20093;-56
2023/07/19 10:43:36;;;;;;;10.90;7.72;;;29.80;99.90;;;;;;5009460;28;20041;-56
2023/07/19 10:46:05;;;;;;;9.30;7.20;;;29.90;99.90;;;;;;5009007;28;20128;-56
2023/07/19 10:48:36;;;;;;;8.40;7.00;;;29.90;99.90;;;;;;5010337;28;20145;-57
2023/07/19 10:51:03;;;;;;;11.35;7.75;;;29.90;99.90;;;;;;5003468;28;20027;-56
2023/07/19 10:53:30;;;;;;;;;;;29.90;99.90;;;;;;5010920;28;20022;-56
2023/07/19 10:55:59;;;;;;;11.63;6.88;;;29.90;99.90;;;;;;5002304;28;19913;-57
2023/07/19 10:58:24;;;;;;;8.85;6.78;;;29.90;99.90;;;;;;5000291;28;20022;-56
2023/07/19 11:00:56;;;;;;;14.52;7.72;;;29.90;99.90;;;;;;4991980;28;20493;-57
2023/07/19 11:03:26;;;;;;;10.90;7.45;;;29.90;99.90;;;;;;5010073;28;20022;-56
2023/07/19 11:05:53;;;;;;;10.30;7.63;;;29.90;99.90;;;;;;5010295;28;20482;-56
2023/07/19 11:08:29;;;;;;;11.32;7.13;;;29.90;99.90;;;;;;5008060;28;20026;-59
2023/07/19 11:10:57;;;;;;;12.50;6.90;;;29.90;99.90;;;;;;5007699;28;20116;-59
2023/07/19 11:13:26;;;;;;;9.98;6.88;;;29.90;99.90;;;;;;5008183;28;20346;-59
2023/07/19 11:16:01;;;;;;;10.57;7.28;;;29.90;99.90;;;;;;5010981;28;20073;-58
2023/07/19 11:18:44;;;;;;;12.98;7.30;;;29.90;99.90;;;;;;5008248;28;20108;-58
2023/07/19 11:21:13;;;;;;;10.13;7.40;;;29.90;99.90;;;;;;5010754;28;20022;-59
2023/07/19 11:23:41;;;;;;;13.98;7.53;;;30.00;99.90;;;;;;5007113;28;20018;-57
2023/07/19 11:26:09;;;;;;;12.60;7.93;;;29.90;99.90;;;;;;5011061;28;20508;-55
2023/07/19 11:28:49;;;;;;;14.02;8.90;;;29.90;99.90;;;;;;5004431;28;20362;-55
2023/07/19 11:31:32;;;;;;;14.73;7.53;;;30.00;99.90;;;;;;5006493;28;20030;-54
2023/07/19 11:34:19;;;;;;;11.30;6.90;;;29.90;99.90;;;;;;5020474;28;20096;-55
2023/07/19 11:36:46;;;;;;;9.90;7.03;;;30.00;99.90;;;;;;4999712;28;20034;-54
2023/07/19 11:39:15;;;;;;;;;;;30.00;99.90;;;;;;5015197;28;20030;-55
2023/07/19 11:41:48;;;;;;;10.80;7.43;;;30.00;99.90;;;;;;5014559;28;19909;-54
2023/07/19 11:44:19;;;;;;;12.43;6.85;;;30.00;99.90;;;;;;5011408;28;20126;-54
2023/07/19 11:46:46;;;;;;;12.25;6.78;;;30.00;99.90;;;;;;5014058;28;20088;-56
2023/07/19 11:49:12;;;;;;;10.82;6.85;;;30.00;99.90;;;;;;5008693;28;20494;-54
2023/07/19 11:51:38;;;;;;;10.30;6.55;;;30.10;99.90;;;;;;5011444;28;20038;-55
2023/07/19 11:54:04;;;;;;;9.32;6.93;;;30.10;99.90;;;;;;5009626;28;20036;-55
2023/07/19 11:56:30;;;;;;;12.10;6.72;;;30.10;99.90;;;;;;5009702;28;20022;-55
2023/07/19 11:58:57;;;;;;;11.18;6.75;;;30.10;99.90;;;;;;5000554;28;20486;-51
2023/07/19 12:01:24;;;;;;;12.82;6.28;;;30.00;99.90;;;;;;5003832;28;20061;-54
2023/07/19 12:03:49;;;;;;;12.05;7.05;;;30.10;99.90;;;;;;5014706;28;20500;-55
2023/07/19 12:06:15;;;;;;;13.80;8.00;;;30.10;99.90;;;;;;5012761;28;20033;-59
2023/07/19 12:08:41;;;;;;;11.15;6.78;;;30.10;99.90;;;;;;5013064;28;20017;-55
2023/07/19 12:11:08;;;;;;;13.32;7.57;;;30.10;99.90;;;;;;5014539;28;20055;-56
2023/07/19 12:13:37;;;;;;;10.90;6.93;;;30.10;99.90;;;;;;5014118;28;20018;-55
2023/07/19 12:16:03;;;;;;;10.88;6.90;;;30.10;99.90;;;;;;5014117;28;20690;-54
2023/07/19 12:18:30;;;;;;;13.52;7.55;;;30.10;99.90;;;;;;5013811;28;20077;-56
2023/07/19 12:20:56;;;;;;;12.45;6.63;;;30.10;99.90;;;;;;5006011;28;20379;-55
2023/07/19 12:23:23;;;;;;;14.75;7.05;;;30.10;99.90;;;;;;5011644;28;20613;-54
2023/07/19 12:25:49;;;;;;;10.67;6.63;;;30.10;99.90;;;;;;5006606;28;20022;-56
2023/07/19 12:28:16;;;;;;;11.60;7.00;;;30.20;99.90;;;;;;5011300;28;20811;-59
2023/07/19 12:30:42;;;;;;;13.85;7.60;;;30.10;99.90;;;;;;5011458;28;20049;-57
2023/07/19 12:33:08;;;;;;;37.67;8.65;;;30.20;99.90;;;;;;5011521;28;20129;-55
2023/07/19 12:35:36;;;;;;;10.98;7.75;;;30.10;99.90;;;;;;5011245;28;20018;-58
2023/07/19 12:38:01;;;;;;;;;;;30.10;99.90;;;;;;5010304;28;20030;-57